createdAt,value
2023-01-17T00:06:21.676Z,275.67642
2023-01-17T00:21:24.045Z,101.88042
2023-01-17T00:36:26.257Z,17.9789
2023-01-17T00:51:28.585Z,2.39719
2023-01-17T01:06:30.993Z,0
2023-01-17T01:21:33.423Z,0
2023-01-17T01:36:35.683Z,0
2023-01-17T01:51:38.023Z,0
2023-01-17T02:06:40.553Z,0
2023-01-17T02:21:43.217Z,0
2023-01-17T02:36:45.633Z,0
2023-01-17T02:51:48.010Z,0
2023-01-17T03:06:50.232Z,0
2023-01-17T03:21:52.658Z,0
2023-01-17T03:36:55.093Z,0
2023-01-17T03:51:57.314Z,0
2023-01-17T04:06:59.871Z,0
2023-01-17T04:22:02.179Z,0
2023-01-17T04:37:04.371Z,0
2023-01-17T04:52:06.786Z,0
2023-01-17T05:07:09.105Z,0
2023-01-17T05:22:11.317Z,0
2023-01-17T05:37:13.539Z,0
2023-01-17T05:52:15.777Z,0
2023-01-17T06:07:17.943Z,0
2023-01-17T06:22:20.192Z,0
2023-01-17T06:37:22.454Z,0
2023-01-17T06:52:24.668Z,0
2023-01-17T07:07:27.206Z,0
2023-01-17T07:22:29.474Z,0
2023-01-17T07:37:31.825Z,0
2023-01-17T07:52:34.048Z,0
2023-01-17T08:07:36.493Z,0
2023-01-17T08:22:39.050Z,0
2023-01-17T08:37:41.355Z,0
2023-01-17T08:52:43.681Z,0
2023-01-17T09:07:47.629Z,0
2023-01-17T09:22:49.972Z,0
2023-01-17T09:37:52.206Z,0
2023-01-17T09:52:54.420Z,0
2023-01-17T10:07:56.664Z,0
2023-01-17T10:22:58.903Z,0
2023-01-17T10:38:01.280Z,0
2023-01-17T10:53:03.669Z,0
2023-01-17T11:08:05.897Z,0
2023-01-17T11:23:08.141Z,0
2023-01-17T11:38:10.374Z,0
2023-01-17T11:53:12.741Z,0
2023-01-17T12:08:14.941Z,0
2023-01-17T12:23:17.218Z,0
2023-01-17T12:38:31.728Z,0
2023-01-17T12:53:34.673Z,0
2023-01-17T13:08:36.960Z,0
2023-01-17T13:23:39.167Z,0
2023-01-17T13:38:41.428Z,0
2023-01-17T13:53:43.687Z,0
2023-01-17T14:08:45.927Z,0
2023-01-17T14:23:48.220Z,0
2023-01-17T14:38:50.454Z,0
2023-01-17T14:53:52.684Z,0
2023-01-17T15:08:54.935Z,1.19859
2023-01-17T15:23:57.291Z,10.78734
2023-01-17T15:38:59.670Z,61.12825
2023-01-17T15:54:02.059Z,179.78897
2023-01-17T16:09:04.291Z,287.66235
2023-01-17T16:24:06.498Z,437.48651
2023-01-17T16:39:08.750Z,529.7782
2023-01-17T16:54:11.096Z,818.6391
2023-01-17T17:09:13.345Z,877.37018
2023-01-17T17:24:15.786Z,1041.57739
2023-01-17T17:39:18.019Z,1494.64563
2023-01-17T17:54:20.336Z,1709.19385
2023-01-17T18:09:22.691Z,2242.56787
2023-01-17T18:24:24.946Z,2175.44653
2023-01-17T18:39:27.272Z,2116.71558
2023-01-17T18:54:29.555Z,2495.47095
2023-01-17T19:09:31.825Z,2433.14404
2023-01-17T19:24:34.143Z,2742.3811
2023-01-17T19:39:36.502Z,2648.89087
2023-01-17T19:54:38.872Z,2798.71509
2023-01-17T20:09:41.130Z,3002.47583
2023-01-17T20:24:43.556Z,3231.40723
2023-01-17T20:39:45.864Z,3237.40015
2023-01-17T20:54:48.113Z,3311.71289
2023-01-17T21:09:50.435Z,3160.69019
2023-01-17T21:24:52.772Z,2946.14185
2023-01-17T21:39:55.103Z,2500.26538
2023-01-17T21:54:57.374Z,2273.7312
2023-01-17T22:09:59.775Z,2129.8999
2023-01-17T22:25:02.197Z,1673.23608
2023-01-17T22:40:05.253Z,1372.38916
2023-01-17T22:55:07.748Z,1087.12402
2023-01-17T23:10:10.016Z,782.68134
2023-01-17T23:25:12.532Z,577.72192
2023-01-17T23:40:14.725Z,369.16669
2023-01-17T23:55:16.952Z,246.91019
